createdAt,value
2023-01-26T00:01:53.721Z,102387.34
2023-01-26T00:04:22.797Z,102394.38
2023-01-26T00:06:51.709Z,102391.72
2023-01-26T00:09:19.932Z,102385.59
2023-01-26T00:11:47.900Z,102383.84
2023-01-26T00:14:15.849Z,102385.59
2023-01-26T00:16:43.770Z,102380.34
2023-01-26T00:19:13.537Z,102381.19
2023-01-26T00:21:41.442Z,102379.44
2023-01-26T00:24:09.507Z,102373.31
2023-01-26T00:26:37.462Z,102372.47
2023-01-26T00:29:05.367Z,102372.44
2023-01-26T00:31:33.368Z,102371.56
2023-01-26T00:34:01.424Z,102367.16
2023-01-26T00:36:30.687Z,102365.44
2023-01-26T00:38:58.751Z,102352.28
2023-01-26T00:41:44.580Z,102354.03
2023-01-26T00:44:12.608Z,102355.78
2023-01-26T00:46:40.492Z,102353.16
2023-01-26T00:49:08.619Z,102353.16
2023-01-26T00:51:38.153Z,102351.41
2023-01-26T00:54:06.140Z,102343.53
2023-01-26T00:56:34.040Z,102344.38
2023-01-26T00:59:01.930Z,102348.78
2023-01-26T01:01:30.000Z,102338.25
2023-01-26T01:03:58.058Z,102334.75
2023-01-26T01:06:28.388Z,102335.66
2023-01-26T01:08:57.749Z,102332.13
2023-01-26T01:11:25.755Z,102336.53
2023-01-26T01:13:53.671Z,102338.25
2023-01-26T01:16:21.643Z,102338.28
2023-01-26T01:18:49.755Z,102328.59
2023-01-26T01:21:18.720Z,102327.75
2023-01-26T01:23:46.662Z,102324.22
2023-01-26T01:26:17.025Z,102321.59
2023-01-26T01:28:45.366Z,102319.84
2023-01-26T01:31:15.266Z,102315.47
2023-01-26T01:33:44.088Z,102312.81
2023-01-26T01:36:15.224Z,102319.84
2023-01-26T01:38:43.676Z,102312.81
2023-01-26T01:41:11.986Z,102316.34
2023-01-26T01:43:41.603Z,102319.84
2023-01-26T01:46:16.213Z,102314.59
2023-01-26T01:48:52.147Z,102311.94
2023-01-26T01:51:22.330Z,102311.97
2023-01-26T01:53:53.193Z,102313.72
2023-01-26T01:56:24.801Z,102311.09
2023-01-26T01:58:59.120Z,102318.97
2023-01-26T02:01:28.008Z,102323.34
2023-01-26T02:04:00.861Z,102320.72
2023-01-26T02:06:36.444Z,102315.44
2023-01-26T02:09:06.896Z,102311.03
2023-01-26T02:11:40.522Z,102312.78
2023-01-26T02:14:12.921Z,102308.41
2023-01-26T02:16:40.938Z,102306.69
2023-01-26T02:19:13.622Z,102303.16
2023-01-26T02:21:42.757Z,102299.66
2023-01-26T02:24:17.200Z,102306.72
2023-01-26T02:26:46.586Z,102309.31
2023-01-26T02:29:15.045Z,102308.44
2023-01-26T02:31:45.124Z,102304.94
2023-01-26T02:34:13.020Z,102301.44
2023-01-26T02:36:41.062Z,102298.81
2023-01-26T02:39:23.770Z,102292.66
2023-01-26T02:42:11.404Z,102284.78
2023-01-26T02:44:40.635Z,102287.41
2023-01-26T02:47:19.459Z,102276.84
2023-01-26T02:49:50.834Z,102287.41
2023-01-26T02:52:20.454Z,102275.16
2023-01-26T02:55:05.664Z,102274.25
2023-01-26T02:57:35.452Z,102273.41
2023-01-26T03:00:03.633Z,102273.38
2023-01-26T03:02:31.701Z,102274.25
2023-01-26T03:04:59.668Z,102274.28
2023-01-26T03:07:27.575Z,102269.88
2023-01-26T03:09:55.522Z,102268.16
2023-01-26T03:12:23.587Z,102262.84
2023-01-26T03:15:17.430Z,102268.13
2023-01-26T03:17:45.573Z,102270.72
2023-01-26T03:20:31.211Z,102260.16
2023-01-26T03:23:16.824Z,102261.94
2023-01-26T03:26:02.235Z,102257.53
2023-01-26T03:28:30.104Z,102258.41
2023-01-26T03:30:59.588Z,102253.16
2023-01-26T03:33:27.493Z,102251.41
2023-01-26T03:35:56.039Z,102252.25
2023-01-26T03:38:23.988Z,102253.13
2023-01-26T03:41:09.325Z,102250.50
2023-01-26T03:43:54.664Z,102247.88
2023-01-26T03:46:41.495Z,102239.09
2023-01-26T03:49:26.907Z,102236.41
2023-01-26T03:52:12.083Z,102243.47
2023-01-26T03:54:57.477Z,102242.59
2023-01-26T03:57:25.398Z,102232.06
2023-01-26T03:59:53.354Z,102239.13
2023-01-26T04:02:40.097Z,102236.44
2023-01-26T04:05:26.362Z,102236.44
2023-01-26T04:08:11.509Z,102232.88
2023-01-26T04:10:39.368Z,102233.75
2023-01-26T04:13:24.861Z,102239.00
2023-01-26T04:16:10.731Z,102231.97
2023-01-26T04:18:57.531Z,102232.88
2023-01-26T04:21:27.958Z,102235.47
2023-01-26T04:23:57.415Z,102230.25
2023-01-26T04:26:26.161Z,102239.00
2023-01-26T04:28:54.098Z,102239.88
2023-01-26T04:31:22.130Z,102239.00
2023-01-26T04:33:51.544Z,102239.00
2023-01-26T04:36:19.514Z,102238.97
2023-01-26T04:38:47.472Z,102232.88
2023-01-26T04:41:15.284Z,102232.88
2023-01-26T04:43:43.314Z,102228.53
2023-01-26T04:46:11.572Z,102226.75
2023-01-26T04:48:39.469Z,102225.91
2023-01-26T04:51:13.515Z,102224.97
2023-01-26T04:53:41.968Z,102225.00
2023-01-26T04:56:24.774Z,102227.59
2023-01-26T04:58:53.156Z,102221.53
2023-01-26T05:01:21.713Z,102223.25
2023-01-26T05:03:50.086Z,102222.38
2023-01-26T05:06:19.665Z,102218.81
2023-01-26T05:08:47.520Z,102216.25
2023-01-26T05:11:15.699Z,102214.41
2023-01-26T05:13:43.684Z,102206.50
2023-01-26T05:16:14.041Z,102210.00
2023-01-26T05:18:42.352Z,102214.44
2023-01-26T05:21:11.305Z,102215.31
2023-01-26T05:23:40.673Z,102206.50
2023-01-26T05:26:09.453Z,102215.31
2023-01-26T05:28:37.729Z,102205.66
2023-01-26T05:31:05.820Z,102210.06
2023-01-26T05:33:33.841Z,102207.44
2023-01-26T05:36:07.003Z,102202.16
2023-01-26T05:38:35.022Z,102201.25
2023-01-26T05:41:04.280Z,102202.94
2023-01-26T05:43:32.205Z,102213.47
2023-01-26T05:46:00.407Z,102204.66
2023-01-26T05:48:28.557Z,102200.31
2023-01-26T05:50:57.656Z,102199.41
2023-01-26T05:53:25.887Z,102207.31
2023-01-26T05:55:53.752Z,102210.03
2023-01-26T05:58:23.025Z,102209.09
2023-01-26T06:00:51.023Z,102208.22
2023-01-26T06:03:18.864Z,102217.88
2023-01-26T06:05:54.109Z,102205.56
2023-01-26T06:08:22.111Z,102213.44
2023-01-26T06:10:49.953Z,102215.09
2023-01-26T06:13:17.917Z,102219.50
2023-01-26T06:15:47.128Z,102222.09
2023-01-26T06:18:14.926Z,102220.31
2023-01-26T06:20:44.351Z,102227.34
2023-01-26T06:23:12.684Z,102222.06
2023-01-26T06:25:40.532Z,102219.41
2023-01-26T06:28:08.561Z,102220.41
2023-01-26T06:30:36.468Z,102222.13
2023-01-26T06:33:06.945Z,102220.34
2023-01-26T06:35:36.108Z,102222.13
2023-01-26T06:38:04.390Z,102222.97
2023-01-26T06:40:32.484Z,102217.72
2023-01-26T06:43:00.496Z,102227.38
2023-01-26T06:45:28.481Z,102232.66
2023-01-26T06:47:56.300Z,102230.94
2023-01-26T06:50:27.946Z,102228.34
2023-01-26T06:52:57.783Z,102223.94
2023-01-26T06:55:34.123Z,102231.81
2023-01-26T06:58:02.019Z,102237.06
2023-01-26T07:00:30.185Z,102234.38
2023-01-26T07:02:58.130Z,102227.38
2023-01-26T07:05:27.424Z,102232.72
2023-01-26T07:07:55.385Z,102219.41
2023-01-26T07:10:23.362Z,102229.09
2023-01-26T07:12:51.185Z,102226.41
2023-01-26T07:15:19.546Z,102234.28
2023-01-26T07:17:47.470Z,102232.56
2023-01-26T07:20:15.442Z,102246.59
2023-01-26T07:22:44.828Z,102243.94
2023-01-26T07:25:12.706Z,102243.94
2023-01-26T07:27:40.591Z,102244.78
2023-01-26T07:30:10.000Z,102241.22
2023-01-26T07:32:38.194Z,102241.22
2023-01-26T07:35:07.164Z,102244.81
2023-01-26T07:37:35.134Z,102236.94
2023-01-26T07:40:06.088Z,102249.16
2023-01-26T07:42:34.035Z,102235.09
2023-01-26T07:45:02.334Z,102234.31
2023-01-26T07:47:30.333Z,102243.06
2023-01-26T07:49:58.258Z,102246.56
2023-01-26T07:52:26.864Z,102253.50
2023-01-26T07:54:54.783Z,102251.72
2023-01-26T07:57:24.035Z,102245.50
2023-01-26T07:59:51.926Z,102244.72
2023-01-26T08:02:20.175Z,102235.03
2023-01-26T08:04:49.162Z,102239.53
2023-01-26T08:07:16.974Z,102239.50
2023-01-26T08:09:44.852Z,102247.34
2023-01-26T08:12:12.704Z,102255.22
2023-01-26T08:14:47.169Z,102254.31
2023-01-26T08:17:17.470Z,102246.38
2023-01-26T08:19:45.459Z,102255.06
2023-01-26T08:22:15.943Z,102257.75
2023-01-26T08:24:43.838Z,102263.03
2023-01-26T08:27:11.719Z,102263.03
2023-01-26T08:29:41.214Z,102269.19
2023-01-26T08:32:09.318Z,102269.25
2023-01-26T08:34:37.533Z,102266.75
2023-01-26T08:37:05.340Z,102269.31
2023-01-26T08:39:33.283Z,102268.44
2023-01-26T08:42:01.125Z,102272.81
2023-01-26T08:44:28.948Z,102269.25
2023-01-26T08:46:58.411Z,102273.59
2023-01-26T08:49:26.335Z,102277.94
2023-01-26T08:51:54.185Z,102270.00
2023-01-26T08:54:27.283Z,102262.13
2023-01-26T08:56:55.346Z,102269.09
2023-01-26T08:59:24.963Z,102263.78
2023-01-26T09:01:52.904Z,102269.00
2023-01-26T09:04:23.066Z,102263.69
2023-01-26T09:06:50.900Z,102261.97
2023-01-26T09:09:18.879Z,102263.66
2023-01-26T09:11:47.027Z,102255.78
2023-01-26T09:14:14.890Z,102255.75
2023-01-26T09:16:42.783Z,102258.28
2023-01-26T09:19:10.673Z,102264.44
2023-01-26T09:21:39.913Z,102253.78
2023-01-26T09:24:08.374Z,102252.75
2023-01-26T09:26:36.681Z,102256.25
2023-01-26T09:29:04.862Z,102260.56
2023-01-26T09:31:33.142Z,102245.59
2023-01-26T09:34:01.070Z,102236.78
2023-01-26T09:36:28.978Z,102242.00
2023-01-26T09:38:58.268Z,102248.13
2023-01-26T09:41:45.097Z,102251.56
2023-01-26T09:44:19.687Z,102250.75
2023-01-26T09:46:59.239Z,102236.59
2023-01-26T09:49:30.679Z,102238.44
2023-01-26T09:52:04.540Z,102243.78
2023-01-26T09:54:40.313Z,102240.31
2023-01-26T09:57:14.799Z,102242.00
2023-01-26T09:59:48.377Z,102234.06
2023-01-26T10:02:34.418Z,102246.31
2023-01-26T10:05:05.843Z,102246.22
2023-01-26T10:07:33.632Z,102240.16
2023-01-26T10:10:05.771Z,102242.81
2023-01-26T10:12:37.467Z,102244.44
2023-01-26T10:15:09.700Z,102245.25
2023-01-26T10:17:40.980Z,102245.22
2023-01-26T10:20:19.052Z,102240.69
2023-01-26T10:22:49.903Z,102236.38
2023-01-26T10:25:21.488Z,102231.88
2023-01-26T10:27:49.529Z,102234.50
2023-01-26T10:30:20.088Z,102230.00
2023-01-26T10:32:51.957Z,102229.25
2023-01-26T10:35:22.149Z,102235.34
2023-01-26T10:37:52.798Z,102221.19
2023-01-26T10:40:22.446Z,102222.88
2023-01-26T10:42:58.770Z,102215.78
2023-01-26T10:45:29.952Z,102212.19
2023-01-26T10:48:05.246Z,102209.69
2023-01-26T10:50:33.279Z,102207.06
2023-01-26T10:53:02.832Z,102208.66
2023-01-26T10:55:33.815Z,102211.19
2023-01-26T10:58:02.594Z,102213.69
2023-01-26T11:00:33.406Z,102225.13
2023-01-26T11:03:07.960Z,102219.78
2023-01-26T11:05:35.982Z,102219.75
2023-01-26T11:08:06.972Z,102224.03
2023-01-26T11:10:38.592Z,102227.59
2023-01-26T11:13:19.338Z,102232.78
2023-01-26T11:15:49.339Z,102231.19
2023-01-26T11:18:28.543Z,102227.72
2023-01-26T11:21:02.401Z,102211.75
2023-01-26T11:23:50.196Z,102217.97
2023-01-26T11:26:33.252Z,102212.78
2023-01-26T11:29:19.549Z,102209.56
2023-01-26T11:31:58.701Z,102213.03
2023-01-26T11:34:36.973Z,102212.94
2023-01-26T11:37:30.765Z,102200.47
2023-01-26T11:40:05.042Z,102196.69
2023-01-26T11:42:42.984Z,102194.88
2023-01-26T11:45:23.230Z,102180.59
2023-01-26T11:48:04.477Z,102192.84
2023-01-26T11:50:39.820Z,102190.28
2023-01-26T11:53:36.691Z,102181.53
2023-01-26T11:56:18.137Z,102180.78
2023-01-26T11:58:54.645Z,102184.22
2023-01-26T12:01:35.189Z,102173.56
2023-01-26T12:04:03.391Z,102177.16
2023-01-26T12:06:38.269Z,102169.13
2023-01-26T12:09:10.784Z,102166.66
2023-01-26T12:11:41.637Z,102173.75
2023-01-26T12:14:23.295Z,102171.88
2023-01-26T12:17:17.146Z,102168.31
2023-01-26T12:19:54.029Z,102169.13
2023-01-26T12:22:29.626Z,102155.91
2023-01-26T12:25:20.209Z,102156.91
2023-01-26T12:27:56.319Z,102155.84
2023-01-26T12:30:35.673Z,102147.94
2023-01-26T12:33:03.731Z,102150.38
2023-01-26T12:35:50.397Z,102144.13
2023-01-26T12:38:24.188Z,102140.72
2023-01-26T12:41:04.580Z,102132.66
2023-01-26T12:43:53.307Z,102122.22
2023-01-26T12:46:24.869Z,102136.25
2023-01-26T12:48:58.170Z,102127.63
2023-01-26T12:51:31.772Z,102124.59
2023-01-26T12:54:06.122Z,102132.44
2023-01-26T12:56:40.737Z,102127.66
2023-01-26T12:59:28.277Z,102127.00
2023-01-26T13:02:21.559Z,102140.47
2023-01-26T13:04:51.475Z,102138.66
2023-01-26T13:07:34.677Z,102144.78
2023-01-26T13:10:23.044Z,102145.81
2023-01-26T13:12:56.963Z,102137.25
2023-01-26T13:15:26.824Z,102138.91
2023-01-26T13:17:58.827Z,102136.38
2023-01-26T13:20:45.867Z,102132.03
2023-01-26T13:23:42.698Z,102130.16
2023-01-26T13:26:18.805Z,102126.44
2023-01-26T13:28:48.384Z,102128.03
2023-01-26T13:31:34.263Z,102127.09
2023-01-26T13:34:09.037Z,102124.44
2023-01-26T13:36:40.220Z,102137.03
2023-01-26T13:39:15.087Z,102117.66
2023-01-26T13:41:48.708Z,102130.84
2023-01-26T13:44:21.796Z,102134.34
2023-01-26T13:46:56.485Z,102126.28
2023-01-26T13:49:28.424Z,102123.63
2023-01-26T13:51:56.323Z,102136.75
2023-01-26T13:54:27.795Z,102140.28
2023-01-26T13:57:04.212Z,102140.25
2023-01-26T13:59:33.146Z,102144.59
2023-01-26T14:02:01.645Z,102140.56
2023-01-26T14:04:32.631Z,102138.91
2023-01-26T14:07:04.838Z,102144.09
2023-01-26T14:09:36.184Z,102143.97
2023-01-26T14:12:06.571Z,102146.03
2023-01-26T14:14:37.935Z,102152.16
2023-01-26T14:17:09.115Z,102156.59
2023-01-26T14:19:42.611Z,102147.94
2023-01-26T14:22:15.122Z,102136.41
2023-01-26T14:24:43.199Z,102153.06
2023-01-26T14:27:29.962Z,102159.13
2023-01-26T14:29:58.135Z,102160.84
2023-01-26T14:32:29.435Z,102155.47
2023-01-26T14:35:01.193Z,102168.66
2023-01-26T14:37:29.753Z,102165.22
2023-01-26T14:40:21.645Z,102171.34
2023-01-26T14:42:51.092Z,102177.56
2023-01-26T14:45:25.485Z,102173.03
2023-01-26T14:47:54.787Z,102174.97
2023-01-26T14:50:28.332Z,102182.91
2023-01-26T14:52:56.680Z,102188.16
2023-01-26T14:55:29.072Z,102189.00
2023-01-26T14:57:57.835Z,102183.97
2023-01-26T15:00:28.628Z,102180.59
2023-01-26T15:02:58.851Z,102186.59
2023-01-26T15:05:35.485Z,102181.44
2023-01-26T15:08:05.367Z,102182.28
2023-01-26T15:10:38.336Z,102190.09
2023-01-26T15:13:21.650Z,102194.28
2023-01-26T15:16:03.914Z,102189.84
2023-01-26T15:18:33.089Z,102190.00
2023-01-26T15:21:13.449Z,102186.78
2023-01-26T15:23:44.523Z,102191.25
2023-01-26T15:26:15.908Z,102192.34
2023-01-26T15:28:43.947Z,102188.78
2023-01-26T15:31:22.348Z,102195.81
2023-01-26T15:33:52.372Z,102198.38
2023-01-26T15:36:34.583Z,102196.56
2023-01-26T15:39:10.919Z,102184.31
2023-01-26T15:41:38.840Z,102178.13
2023-01-26T15:44:06.909Z,102180.09
2023-01-26T15:46:34.826Z,102181.75
2023-01-26T15:49:02.947Z,102185.25
2023-01-26T15:51:32.299Z,102180.69
2023-01-26T15:54:00.185Z,102183.22
2023-01-26T15:56:28.164Z,102191.03
2023-01-26T15:58:55.952Z,102185.66
2023-01-26T16:01:24.253Z,102176.78
2023-01-26T16:03:52.444Z,102176.75
2023-01-26T16:06:25.986Z,102184.81
2023-01-26T16:08:55.547Z,102184.09
2023-01-26T16:11:26.668Z,102175.94
2023-01-26T16:14:03.201Z,102183.50
2023-01-26T16:16:32.579Z,102192.19
2023-01-26T16:19:00.685Z,102186.78
2023-01-26T16:21:33.013Z,102186.78
2023-01-26T16:24:02.839Z,102195.53
2023-01-26T16:26:31.606Z,102196.47
2023-01-26T16:28:59.770Z,102203.34
2023-01-26T16:31:33.503Z,102211.16
2023-01-26T16:34:02.111Z,102207.50
2023-01-26T16:36:30.150Z,102204.91
2023-01-26T16:38:57.973Z,102211.03
2023-01-26T16:41:29.697Z,102218.06
2023-01-26T16:44:00.022Z,102218.84
2023-01-26T16:46:28.890Z,102218.78
2023-01-26T16:48:57.449Z,102228.56
2023-01-26T16:51:26.801Z,102225.81
2023-01-26T16:53:55.532Z,102232.72
2023-01-26T16:56:24.335Z,102228.38
2023-01-26T16:58:53.517Z,102232.69
2023-01-26T17:01:23.538Z,102232.53
2023-01-26T17:03:52.221Z,102231.59
2023-01-26T17:06:20.952Z,102231.59
2023-01-26T17:08:48.957Z,102240.59
2023-01-26T17:11:22.265Z,102242.50
2023-01-26T17:13:51.477Z,102241.66
2023-01-26T17:16:25.351Z,102245.94
2023-01-26T17:18:54.638Z,102251.09
2023-01-26T17:21:23.383Z,102252.00
2023-01-26T17:23:53.444Z,102259.84
2023-01-26T17:26:22.513Z,102254.59
2023-01-26T17:28:55.025Z,102253.84
2023-01-26T17:31:25.572Z,102255.47
2023-01-26T17:33:55.642Z,102253.78
2023-01-26T17:36:23.733Z,102257.31
2023-01-26T17:38:53.251Z,102261.84
2023-01-26T17:41:21.200Z,102269.66
2023-01-26T17:43:51.606Z,102260.91
2023-01-26T17:46:21.640Z,102258.09
2023-01-26T17:48:51.367Z,102251.88
2023-01-26T17:51:21.932Z,102251.78
2023-01-26T17:53:53.217Z,102247.22
2023-01-26T17:56:23.234Z,102245.69
2023-01-26T17:58:55.048Z,102255.34
2023-01-26T18:01:25.125Z,102241.97
2023-01-26T18:03:54.700Z,102249.84
2023-01-26T18:06:22.612Z,102241.97
2023-01-26T18:08:50.689Z,102245.38
2023-01-26T18:11:18.827Z,102258.66
2023-01-26T18:13:46.682Z,102253.28
2023-01-26T18:16:17.555Z,102257.56
2023-01-26T18:18:45.537Z,102259.28
2023-01-26T18:21:17.886Z,102260.22
2023-01-26T18:23:47.028Z,102268.16
2023-01-26T18:26:15.771Z,102264.56
2023-01-26T18:28:44.813Z,102266.19
2023-01-26T18:31:14.184Z,102266.03
2023-01-26T18:33:42.118Z,102282.72
2023-01-26T18:36:12.153Z,102268.59
2023-01-26T18:38:41.970Z,102279.13
2023-01-26T18:41:17.431Z,102275.59
2023-01-26T18:43:48.366Z,102272.91
2023-01-26T18:46:16.466Z,102285.25
2023-01-26T18:48:44.826Z,102286.09
2023-01-26T18:51:13.032Z,102284.47
2023-01-26T18:53:42.434Z,102294.19
2023-01-26T18:56:12.280Z,102288.88
2023-01-26T18:58:41.328Z,102297.69
2023-01-26T19:01:13.534Z,102302.84
2023-01-26T19:03:47.350Z,102295.94
2023-01-26T19:06:18.374Z,102295.13
2023-01-26T19:08:48.968Z,102295.25
2023-01-26T19:11:16.879Z,102298.94
2023-01-26T19:13:48.852Z,102292.69
2023-01-26T19:16:16.804Z,102295.09
2023-01-26T19:18:44.834Z,102300.63
2023-01-26T19:21:12.953Z,102297.84
2023-01-26T19:23:42.665Z,102306.53
2023-01-26T19:26:13.203Z,102304.28
2023-01-26T19:28:42.051Z,102310.41
2023-01-26T19:31:10.940Z,102308.50
2023-01-26T19:33:39.314Z,102318.19
2023-01-26T19:36:08.948Z,102323.38
2023-01-26T19:38:39.905Z,102319.84
2023-01-26T19:41:07.979Z,102322.63
2023-01-26T19:43:37.472Z,102324.44
2023-01-26T19:46:08.468Z,102315.44
2023-01-26T19:48:36.642Z,102320.84
2023-01-26T19:51:07.230Z,102321.91
2023-01-26T19:53:37.101Z,102327.44
2023-01-26T19:56:08.958Z,102323.38
2023-01-26T19:58:38.800Z,102324.22
2023-01-26T20:01:08.313Z,102332.16
2023-01-26T20:03:36.751Z,102326.75
2023-01-26T20:06:06.311Z,102331.06
2023-01-26T20:08:34.268Z,102329.97
2023-01-26T20:11:05.592Z,102328.19
2023-01-26T20:13:33.980Z,102323.78
2023-01-26T20:16:04.557Z,102327.25
2023-01-26T20:18:32.893Z,102323.59
2023-01-26T20:21:01.146Z,102328.97
2023-01-26T20:23:29.356Z,102336.88
2023-01-26T20:26:02.596Z,102332.47
2023-01-26T20:28:31.010Z,102338.63
2023-01-26T20:31:07.148Z,102339.56
2023-01-26T20:33:35.150Z,102334.09
2023-01-26T20:36:07.065Z,102337.72
2023-01-26T20:38:35.000Z,102335.78
2023-01-26T20:41:07.933Z,102334.91
2023-01-26T20:43:39.259Z,102338.47
2023-01-26T20:46:11.145Z,102335.75
2023-01-26T20:48:39.576Z,102343.84
2023-01-26T20:51:11.699Z,102345.72
2023-01-26T20:53:40.171Z,102340.44
2023-01-26T20:56:09.172Z,102342.13
2023-01-26T20:58:37.547Z,102346.66
2023-01-26T21:01:06.438Z,102347.63
2023-01-26T21:03:38.111Z,102348.56
2023-01-26T21:06:08.639Z,102345.81
2023-01-26T21:08:38.675Z,102344.13
2023-01-26T21:11:10.936Z,102341.56
2023-01-26T21:13:41.503Z,102338.72
2023-01-26T21:16:10.653Z,102339.50
2023-01-26T21:18:40.216Z,102336.84
2023-01-26T21:21:10.258Z,102340.41
2023-01-26T21:23:38.455Z,102335.97
2023-01-26T21:26:09.531Z,102336.78
2023-01-26T21:28:38.331Z,102338.47
2023-01-26T21:31:09.326Z,102340.97
2023-01-26T21:33:42.161Z,102342.84
2023-01-26T21:36:12.126Z,102340.06
2023-01-26T21:38:42.238Z,102349.81
2023-01-26T21:41:26.811Z,102346.31
2023-01-26T21:43:58.231Z,102339.78
2023-01-26T21:46:26.939Z,102349.44
2023-01-26T21:48:56.259Z,102346.03
2023-01-26T21:51:43.273Z,102353.22
2023-01-26T21:54:11.494Z,102354.97
2023-01-26T21:56:39.852Z,102355.78
2023-01-26T21:59:10.153Z,102356.63
2023-01-26T22:01:40.258Z,102352.13
2023-01-26T22:04:12.531Z,102353.78
2023-01-26T22:06:40.738Z,102346.69
2023-01-26T22:09:11.626Z,102342.25
2023-01-26T22:11:40.378Z,102350.94
2023-01-26T22:14:08.268Z,102348.19
2023-01-26T22:16:36.162Z,102357.25
2023-01-26T22:19:04.377Z,102343.19
2023-01-26T22:21:33.797Z,102349.19
2023-01-26T22:24:01.769Z,102355.25
2023-01-26T22:26:30.101Z,102354.53
2023-01-26T22:28:59.671Z,102355.44
2023-01-26T22:31:29.882Z,102349.22
2023-01-26T22:34:00.017Z,102349.34
2023-01-26T22:36:28.988Z,102347.69
2023-01-26T22:39:00.499Z,102355.44
2023-01-26T22:41:30.131Z,102350.16
2023-01-26T22:43:59.771Z,102345.59
2023-01-26T22:46:29.684Z,102356.16
2023-01-26T22:48:58.431Z,102347.34
2023-01-26T22:51:28.656Z,102350.84
2023-01-26T22:54:00.538Z,102353.47
2023-01-26T22:56:29.486Z,102357.06
2023-01-26T22:59:00.425Z,102353.44
2023-01-26T23:01:30.185Z,102354.28
2023-01-26T23:03:59.208Z,102349.13
2023-01-26T23:06:28.660Z,102360.47
2023-01-26T23:08:59.278Z,102356.22
2023-01-26T23:11:30.163Z,102361.63
2023-01-26T23:13:59.931Z,102362.63
2023-01-26T23:16:29.047Z,102363.59
2023-01-26T23:18:59.576Z,102365.47
2023-01-26T23:21:29.106Z,102365.41
2023-01-26T23:23:58.265Z,102366.19
2023-01-26T23:26:26.577Z,102361.06
2023-01-26T23:28:56.045Z,102358.28
2023-01-26T23:31:24.341Z,102360.78
2023-01-26T23:33:53.106Z,102368.81
2023-01-26T23:36:21.723Z,102361.56
2023-01-26T23:38:49.678Z,102366.91
2023-01-26T23:41:17.933Z,102369.56
2023-01-26T23:43:46.128Z,102368.88
2023-01-26T23:46:15.509Z,102365.41
2023-01-26T23:48:43.708Z,102372.69
2023-01-26T23:51:12.850Z,102370.19
2023-01-26T23:53:41.375Z,102370.69
2023-01-26T23:56:19.516Z,102374.31
2023-01-26T23:58:47.663Z,102370.94
